Terminal Aerodrome Forecast
Issued by NWS

Home | Current Version | Previous Version | Text Only | Print | Product List | Glossary On
Versions: 1 2 3 4 5 6 7 8 9 10 11 12 13 14 15 16 17 18 19 20 21 22
000
FTUS46 KSEW 061720
TAFHQM
TAF
KHQM 061720Z 0618/0718 23006KT 6SM HZ OVC015
     FM062100 23012KT P6SM SCT020
     FM070300 23012KT P6SM OVC015
     FM070900 19006KT 5SM BR OVC010=

USA.gov is the U.S. government's official web portal to all federal, state and local government web resources and services.